sensor_id;sensor_type;location;lat;lon;timestamp;P1;durP1;ratioP1;P2;durP2;ratioP2
21254;SDS011;10785;50.674;17.954;2022-08-03T00:02:20;19.90;;;16.77;;
21254;SDS011;10785;50.674;17.954;2022-08-03T00:04:50;20.50;;;17.73;;
21254;SDS011;10785;50.674;17.954;2022-08-03T00:07:23;20.17;;;18.00;;
21254;SDS011;10785;50.674;17.954;2022-08-03T00:09:54;20.33;;;18.30;;
21254;SDS011;10785;50.674;17.954;2022-08-03T00:12:23;20.73;;;18.50;;
21254;SDS011;10785;50.674;17.954;2022-08-03T00:15:00;20.48;;;18.48;;
21254;SDS011;10785;50.674;17.954;2022-08-03T00:17:38;24.33;;;19.25;;
21254;SDS011;10785;50.674;17.954;2022-08-03T00:20:18;21.83;;;19.60;;
21254;SDS011;10785;50.674;17.954;2022-08-03T00:22:47;24.83;;;20.27;;
21254;SDS011;10785;50.674;17.954;2022-08-03T00:25:17;23.23;;;20.48;;
21254;SDS011;10785;50.674;17.954;2022-08-03T00:27:46;23.92;;;21.42;;
21254;SDS011;10785;50.674;17.954;2022-08-03T00:30:21;22.70;;;20.48;;
21254;SDS011;10785;50.674;17.954;2022-08-03T00:32:56;23.33;;;20.85;;
21254;SDS011;10785;50.674;17.954;2022-08-03T00:35:30;23.85;;;21.48;;
21254;SDS011;10785;50.674;17.954;2022-08-03T00:38:17;23.70;;;21.17;;
21254;SDS011;10785;50.674;17.954;2022-08-03T00:40:47;24.38;;;21.52;;
21254;SDS011;10785;50.674;17.954;2022-08-03T00:43:23;23.70;;;21.20;;
21254;SDS011;10785;50.674;17.954;2022-08-03T00:45:55;23.88;;;21.42;;
21254;SDS011;10785;50.674;17.954;2022-08-03T00:48:27;24.27;;;21.77;;
21254;SDS011;10785;50.674;17.954;2022-08-03T00:50:59;22.52;;;20.15;;
21254;SDS011;10785;50.674;17.954;2022-08-03T00:53:28;24.50;;;21.98;;
21254;SDS011;10785;50.674;17.954;2022-08-03T00:55:58;25.75;;;22.63;;
21254;SDS011;10785;50.674;17.954;2022-08-03T00:58:29;24.05;;;21.33;;
21254;SDS011;10785;50.674;17.954;2022-08-03T01:00:59;24.10;;;21.00;;
21254;SDS011;10785;50.674;17.954;2022-08-03T01:03:31;26.00;;;22.75;;
21254;SDS011;10785;50.674;17.954;2022-08-03T01:06:03;22.80;;;20.48;;
21254;SDS011;10785;50.674;17.954;2022-08-03T01:08:41;23.40;;;21.00;;
21254;SDS011;10785;50.674;17.954;2022-08-03T01:11:16;24.15;;;21.50;;
21254;SDS011;10785;50.674;17.954;2022-08-03T01:13:56;24.33;;;21.80;;
21254;SDS011;10785;50.674;17.954;2022-08-03T01:16:58;26.15;;;22.52;;
21254;SDS011;10785;50.674;17.954;2022-08-03T01:19:40;24.25;;;21.75;;
21254;SDS011;10785;50.674;17.954;2022-08-03T01:22:30;24.80;;;22.23;;
21254;SDS011;10785;50.674;17.954;2022-08-03T01:25:23;28.27;;;23.20;;
21254;SDS011;10785;50.674;17.954;2022-08-03T01:28:08;25.27;;;22.52;;
21254;SDS011;10785;50.674;17.954;2022-08-03T01:30:55;27.52;;;24.83;;
21254;SDS011;10785;50.674;17.954;2022-08-03T01:33:32;27.80;;;22.88;;
21254;SDS011;10785;50.674;17.954;2022-08-03T01:36:04;25.77;;;23.05;;
21254;SDS011;10785;50.674;17.954;2022-08-03T01:38:38;24.80;;;22.33;;
21254;SDS011;10785;50.674;17.954;2022-08-03T01:41:14;26.33;;;22.50;;
21254;SDS011;10785;50.674;17.954;2022-08-03T01:43:49;27.02;;;23.42;;
21254;SDS011;10785;50.674;17.954;2022-08-03T01:46:42;25.02;;;22.38;;
21254;SDS011;10785;50.674;17.954;2022-08-03T01:49:17;24.52;;;21.83;;
21254;SDS011;10785;50.674;17.954;2022-08-03T01:51:50;26.75;;;23.77;;
21254;SDS011;10785;50.674;17.954;2022-08-03T01:54:31;26.52;;;23.77;;
21254;SDS011;10785;50.674;17.954;2022-08-03T01:57:04;25.63;;;22.95;;
21254;SDS011;10785;50.674;17.954;2022-08-03T01:59:38;26.40;;;23.50;;
21254;SDS011;10785;50.674;17.954;2022-08-03T02:02:15;26.08;;;23.17;;
21254;SDS011;10785;50.674;17.954;2022-08-03T02:05:00;27.05;;;24.20;;
21254;SDS011;10785;50.674;17.954;2022-08-03T02:07:39;27.55;;;24.67;;
21254;SDS011;10785;50.674;17.954;2022-08-03T02:10:11;30.80;;;25.40;;
21254;SDS011;10785;50.674;17.954;2022-08-03T02:13:00;33.88;;;27.90;;
21254;SDS011;10785;50.674;17.954;2022-08-03T02:15:37;35.17;;;27.58;;
21254;SDS011;10785;50.674;17.954;2022-08-03T02:18:10;35.88;;;30.23;;
21254;SDS011;10785;50.674;17.954;2022-08-03T02:20:42;34.80;;;30.90;;
21254;SDS011;10785;50.674;17.954;2022-08-03T02:23:17;39.85;;;30.85;;
21254;SDS011;10785;50.674;17.954;2022-08-03T02:25:49;34.10;;;30.30;;
21254;SDS011;10785;50.674;17.954;2022-08-03T02:28:28;35.85;;;31.65;;
21254;SDS011;10785;50.674;17.954;2022-08-03T02:31:02;34.63;;;30.85;;
21254;SDS011;10785;50.674;17.954;2022-08-03T02:33:36;37.53;;;33.05;;
21254;SDS011;10785;50.674;17.954;2022-08-03T02:36:11;43.58;;;37.10;;
21254;SDS011;10785;50.674;17.954;2022-08-03T02:38:43;41.58;;;33.63;;
21254;SDS011;10785;50.674;17.954;2022-08-03T02:41:21;42.35;;;36.10;;
21254;SDS011;10785;50.674;17.954;2022-08-03T02:43:54;44.15;;;34.60;;
21254;SDS011;10785;50.674;17.954;2022-08-03T02:46:35;41.33;;;34.38;;
21254;SDS011;10785;50.674;17.954;2022-08-03T02:49:10;42.67;;;35.85;;
21254;SDS011;10785;50.674;17.954;2022-08-03T02:52:03;39.30;;;34.65;;
21254;SDS011;10785;50.674;17.954;2022-08-03T02:54:39;49.75;;;36.78;;
21254;SDS011;10785;50.674;17.954;2022-08-03T02:57:08;52.85;;;39.47;;
21254;SDS011;10785;50.674;17.954;2022-08-03T02:59:42;44.53;;;37.10;;
21254;SDS011;10785;50.674;17.954;2022-08-03T03:02:14;49.55;;;38.97;;
21254;SDS011;10785;50.674;17.954;2022-08-03T03:04:46;43.05;;;37.50;;
21254;SDS011;10785;50.674;17.954;2022-08-03T03:07:39;44.30;;;36.67;;
21254;SDS011;10785;50.674;17.954;2022-08-03T03:10:19;41.17;;;35.70;;
21254;SDS011;10785;50.674;17.954;2022-08-03T03:12:49;44.08;;;36.83;;
21254;SDS011;10785;50.674;17.954;2022-08-03T03:15:21;41.10;;;36.72;;
21254;SDS011;10785;50.674;17.954;2022-08-03T03:17:51;45.95;;;37.17;;
21254;SDS011;10785;50.674;17.954;2022-08-03T03:20:23;39.25;;;34.85;;
21254;SDS011;10785;50.674;17.954;2022-08-03T03:22:58;47.30;;;38.05;;
21254;SDS011;10785;50.674;17.954;2022-08-03T03:25:30;42.33;;;36.45;;
21254;SDS011;10785;50.674;17.954;2022-08-03T03:28:00;42.97;;;37.83;;
21254;SDS011;10785;50.674;17.954;2022-08-03T03:30:32;41.30;;;36.58;;
21254;SDS011;10785;50.674;17.954;2022-08-03T03:33:02;46.85;;;38.60;;
21254;SDS011;10785;50.674;17.954;2022-08-03T03:35:34;43.97;;;38.78;;
21254;SDS011;10785;50.674;17.954;2022-08-03T03:38:05;46.55;;;38.85;;
21254;SDS011;10785;50.674;17.954;2022-08-03T03:40:35;46.10;;;38.90;;
21254;SDS011;10785;50.674;17.954;2022-08-03T03:43:08;44.17;;;38.15;;
21254;SDS011;10785;50.674;17.954;2022-08-03T03:45:40;42.97;;;38.33;;
21254;SDS011;10785;50.674;17.954;2022-08-03T03:48:12;44.75;;;38.63;;
21254;SDS011;10785;50.674;17.954;2022-08-03T03:50:46;39.80;;;35.50;;
21254;SDS011;10785;50.674;17.954;2022-08-03T03:53:18;42.38;;;33.67;;
21254;SDS011;10785;50.674;17.954;2022-08-03T03:55:50;35.40;;;31.58;;
21254;SDS011;10785;50.674;17.954;2022-08-03T03:58:29;31.75;;;28.25;;
21254;SDS011;10785;50.674;17.954;2022-08-03T04:01:01;29.08;;;25.95;;
21254;SDS011;10785;50.674;17.954;2022-08-03T04:03:36;30.85;;;27.40;;
21254;SDS011;10785;50.674;17.954;2022-08-03T04:06:09;32.03;;;26.38;;
21254;SDS011;10785;50.674;17.954;2022-08-03T04:08:59;35.33;;;26.58;;
21254;SDS011;10785;50.674;17.954;2022-08-03T04:11:52;32.47;;;26.33;;
21254;SDS011;10785;50.674;17.954;2022-08-03T04:14:31;28.23;;;24.70;;
21254;SDS011;10785;50.674;17.954;2022-08-03T04:17:06;29.45;;;22.50;;
21254;SDS011;10785;50.674;17.954;2022-08-03T04:19:41;29.70;;;22.33;;
21254;SDS011;10785;50.674;17.954;2022-08-03T04:22:24;23.77;;;20.38;;
21254;SDS011;10785;50.674;17.954;2022-08-03T04:25:05;23.08;;;20.58;;
21254;SDS011;10785;50.674;17.954;2022-08-03T04:27:41;29.13;;;21.00;;
21254;SDS011;10785;50.674;17.954;2022-08-03T04:30:32;26.95;;;20.17;;
21254;SDS011;10785;50.674;17.954;2022-08-03T04:33:05;22.55;;;19.83;;
21254;SDS011;10785;50.674;17.954;2022-08-03T04:35:38;27.50;;;20.38;;
21254;SDS011;10785;50.674;17.954;2022-08-03T04:38:32;25.85;;;19.30;;
21254;SDS011;10785;50.674;17.954;2022-08-03T04:41:21;24.67;;;19.08;;
21254;SDS011;10785;50.674;17.954;2022-08-03T04:43:58;28.05;;;21.15;;
21254;SDS011;10785;50.674;17.954;2022-08-03T04:46:31;26.00;;;19.75;;
21254;SDS011;10785;50.674;17.954;2022-08-03T04:49:17;25.35;;;20.65;;
21254;SDS011;10785;50.674;17.954;2022-08-03T04:51:49;27.90;;;20.08;;
21254;SDS011;10785;50.674;17.954;2022-08-03T04:54:22;23.35;;;20.17;;
21254;SDS011;10785;50.674;17.954;2022-08-03T04:56:51;24.65;;;21.13;;
21254;SDS011;10785;50.674;17.954;2022-08-03T04:59:22;26.83;;;22.25;;
21254;SDS011;10785;50.674;17.954;2022-08-03T05:01:51;30.65;;;22.08;;
21254;SDS011;10785;50.674;17.954;2022-08-03T05:04:22;34.55;;;23.27;;
21254;SDS011;10785;50.674;17.954;2022-08-03T05:06:51;42.95;;;24.02;;
21254;SDS011;10785;50.674;17.954;2022-08-03T05:09:22;32.60;;;21.38;;
21254;SDS011;10785;50.674;17.954;2022-08-03T05:12:12;31.80;;;21.75;;
21254;SDS011;10785;50.674;17.954;2022-08-03T05:14:41;29.40;;;20.63;;
21254;SDS011;10785;50.674;17.954;2022-08-03T05:17:09;28.38;;;19.73;;
21254;SDS011;10785;50.674;17.954;2022-08-03T05:19:38;23.83;;;19.52;;
21254;SDS011;10785;50.674;17.954;2022-08-03T05:22:07;26.27;;;20.35;;
21254;SDS011;10785;50.674;17.954;2022-08-03T05:24:37;25.90;;;20.02;;
21254;SDS011;10785;50.674;17.954;2022-08-03T05:27:06;26.85;;;20.55;;
21254;SDS011;10785;50.674;17.954;2022-08-03T05:29:34;25.58;;;20.30;;
21254;SDS011;10785;50.674;17.954;2022-08-03T05:32:03;25.05;;;19.67;;
21254;SDS011;10785;50.674;17.954;2022-08-03T05:34:34;27.17;;;20.80;;
21254;SDS011;10785;50.674;17.954;2022-08-03T05:37:02;28.38;;;19.05;;
21254;SDS011;10785;50.674;17.954;2022-08-03T05:39:33;21.50;;;18.55;;
21254;SDS011;10785;50.674;17.954;2022-08-03T05:42:03;22.48;;;19.70;;
21254;SDS011;10785;50.674;17.954;2022-08-03T05:44:32;21.02;;;18.83;;
21254;SDS011;10785;50.674;17.954;2022-08-03T05:47:04;26.33;;;18.98;;
21254;SDS011;10785;50.674;17.954;2022-08-03T05:49:33;25.48;;;18.60;;
21254;SDS011;10785;50.674;17.954;2022-08-03T05:52:01;23.67;;;18.13;;
21254;SDS011;10785;50.674;17.954;2022-08-03T05:54:40;25.05;;;20.05;;
21254;SDS011;10785;50.674;17.954;2022-08-03T05:57:24;28.40;;;19.95;;
21254;SDS011;10785;50.674;17.954;2022-08-03T05:59:53;26.38;;;19.05;;
21254;SDS011;10785;50.674;17.954;2022-08-03T06:02:24;24.95;;;19.60;;
21254;SDS011;10785;50.674;17.954;2022-08-03T06:04:53;29.00;;;19.77;;
21254;SDS011;10785;50.674;17.954;2022-08-03T06:07:22;23.92;;;19.20;;
21254;SDS011;10785;50.674;17.954;2022-08-03T06:09:50;24.63;;;19.10;;
21254;SDS011;10785;50.674;17.954;2022-08-03T06:12:40;22.30;;;19.33;;
21254;SDS011;10785;50.674;17.954;2022-08-03T06:15:10;27.88;;;20.15;;
21254;SDS011;10785;50.674;17.954;2022-08-03T06:17:45;25.77;;;19.88;;
21254;SDS011;10785;50.674;17.954;2022-08-03T06:20:15;21.65;;;18.55;;
21254;SDS011;10785;50.674;17.954;2022-08-03T06:22:47;24.83;;;18.48;;
21254;SDS011;10785;50.674;17.954;2022-08-03T06:25:27;23.92;;;18.00;;
21254;SDS011;10785;50.674;17.954;2022-08-03T06:27:57;26.70;;;18.73;;
21254;SDS011;10785;50.674;17.954;2022-08-03T06:30:26;25.60;;;19.00;;
21254;SDS011;10785;50.674;17.954;2022-08-03T06:32:54;22.02;;;19.40;;
21254;SDS011;10785;50.674;17.954;2022-08-03T06:35:23;23.50;;;18.98;;
21254;SDS011;10785;50.674;17.954;2022-08-03T06:37:53;27.58;;;18.58;;
21254;SDS011;10785;50.674;17.954;2022-08-03T06:40:22;22.63;;;17.10;;
21254;SDS011;10785;50.674;17.954;2022-08-03T06:42:58;19.02;;;16.73;;
21254;SDS011;10785;50.674;17.954;2022-08-03T06:45:29;20.30;;;15.75;;
21254;SDS011;10785;50.674;17.954;2022-08-03T06:47:59;21.95;;;15.57;;
21254;SDS011;10785;50.674;17.954;2022-08-03T06:50:28;19.33;;;16.05;;
21254;SDS011;10785;50.674;17.954;2022-08-03T06:52:57;22.27;;;16.48;;
21254;SDS011;10785;50.674;17.954;2022-08-03T06:55:26;19.73;;;15.15;;
21254;SDS011;10785;50.674;17.954;2022-08-03T06:57:55;21.80;;;16.50;;
21254;SDS011;10785;50.674;17.954;2022-08-03T07:00:30;19.77;;;15.13;;
21254;SDS011;10785;50.674;17.954;2022-08-03T07:02:59;22.08;;;15.25;;
21254;SDS011;10785;50.674;17.954;2022-08-03T07:05:27;24.85;;;14.88;;
21254;SDS011;10785;50.674;17.954;2022-08-03T07:07:56;20.40;;;14.75;;
21254;SDS011;10785;50.674;17.954;2022-08-03T07:10:25;22.55;;;14.13;;
21254;SDS011;10785;50.674;17.954;2022-08-03T07:12:54;17.85;;;14.10;;
21254;SDS011;10785;50.674;17.954;2022-08-03T07:15:23;20.63;;;13.02;;
21254;SDS011;10785;50.674;17.954;2022-08-03T07:18:13;16.05;;;13.35;;
21254;SDS011;10785;50.674;17.954;2022-08-03T07:20:41;20.08;;;13.50;;
21254;SDS011;10785;50.674;17.954;2022-08-03T07:23:10;15.65;;;11.45;;
21254;SDS011;10785;50.674;17.954;2022-08-03T07:25:45;20.08;;;11.93;;
21254;SDS011;10785;50.674;17.954;2022-08-03T07:28:13;16.98;;;11.07;;
21254;SDS011;10785;50.674;17.954;2022-08-03T07:30:42;16.30;;;9.40;;
21254;SDS011;10785;50.674;17.954;2022-08-03T07:33:10;18.17;;;9.35;;
21254;SDS011;10785;50.674;17.954;2022-08-03T07:35:41;13.60;;;10.20;;
21254;SDS011;10785;50.674;17.954;2022-08-03T07:38:09;17.25;;;11.80;;
21254;SDS011;10785;50.674;17.954;2022-08-03T07:40:38;14.20;;;9.00;;
21254;SDS011;10785;50.674;17.954;2022-08-03T07:43:11;13.68;;;9.25;;
21254;SDS011;10785;50.674;17.954;2022-08-03T07:45:40;14.07;;;8.75;;
21254;SDS011;10785;50.674;17.954;2022-08-03T07:48:09;11.10;;;8.65;;
21254;SDS011;10785;50.674;17.954;2022-08-03T07:50:39;11.38;;;8.20;;
21254;SDS011;10785;50.674;17.954;2022-08-03T07:53:08;13.45;;;8.23;;
21254;SDS011;10785;50.674;17.954;2022-08-03T07:55:36;12.85;;;8.75;;
21254;SDS011;10785;50.674;17.954;2022-08-03T07:58:06;11.55;;;7.25;;
21254;SDS011;10785;50.674;17.954;2022-08-03T08:00:38;12.43;;;8.30;;
21254;SDS011;10785;50.674;17.954;2022-08-03T08:03:07;8.32;;;6.63;;
21254;SDS011;10785;50.674;17.954;2022-08-03T08:05:35;8.50;;;5.93;;
21254;SDS011;10785;50.674;17.954;2022-08-03T08:08:06;9.18;;;6.53;;
21254;SDS011;10785;50.674;17.954;2022-08-03T08:10:34;8.02;;;6.28;;
21254;SDS011;10785;50.674;17.954;2022-08-03T08:13:03;8.90;;;6.63;;
21254;SDS011;10785;50.674;17.954;2022-08-03T08:15:32;6.00;;;5.40;;
21254;SDS011;10785;50.674;17.954;2022-08-03T08:18:00;10.00;;;5.55;;
21254;SDS011;10785;50.674;17.954;2022-08-03T08:20:29;6.55;;;4.82;;
21254;SDS011;10785;50.674;17.954;2022-08-03T08:23:04;7.18;;;4.75;;
21254;SDS011;10785;50.674;17.954;2022-08-03T08:25:55;7.13;;;5.47;;
21254;SDS011;10785;50.674;17.954;2022-08-03T08:28:23;7.82;;;4.82;;
21254;SDS011;10785;50.674;17.954;2022-08-03T08:31:00;6.35;;;4.80;;
21254;SDS011;10785;50.674;17.954;2022-08-03T08:33:29;9.15;;;4.90;;
21254;SDS011;10785;50.674;17.954;2022-08-03T08:36:18;6.60;;;4.90;;
21254;SDS011;10785;50.674;17.954;2022-08-03T08:38:48;8.20;;;5.10;;
21254;SDS011;10785;50.674;17.954;2022-08-03T08:41:17;8.70;;;5.97;;
21254;SDS011;10785;50.674;17.954;2022-08-03T08:43:46;6.60;;;5.90;;
21254;SDS011;10785;50.674;17.954;2022-08-03T08:46:15;9.23;;;5.53;;
21254;SDS011;10785;50.674;17.954;2022-08-03T08:48:50;9.10;;;5.85;;
21254;SDS011;10785;50.674;17.954;2022-08-03T08:51:20;6.00;;;5.10;;
21254;SDS011;10785;50.674;17.954;2022-08-03T08:54:12;8.18;;;5.97;;
21254;SDS011;10785;50.674;17.954;2022-08-03T08:56:43;8.00;;;5.57;;
21254;SDS011;10785;50.674;17.954;2022-08-03T08:59:12;9.70;;;6.15;;
21254;SDS011;10785;50.674;17.954;2022-08-03T09:01:41;9.60;;;6.85;;
21254;SDS011;10785;50.674;17.954;2022-08-03T09:04:11;8.65;;;6.95;;
21254;SDS011;10785;50.674;17.954;2022-08-03T09:06:40;9.85;;;6.68;;
21254;SDS011;10785;50.674;17.954;2022-08-03T09:09:30;8.65;;;6.45;;
21254;SDS011;10785;50.674;17.954;2022-08-03T09:12:19;9.13;;;6.68;;
21254;SDS011;10785;50.674;17.954;2022-08-03T09:15:17;10.15;;;5.95;;
21254;SDS011;10785;50.674;17.954;2022-08-03T09:17:48;5.60;;;5.10;;
21254;SDS011;10785;50.674;17.954;2022-08-03T09:20:19;8.80;;;5.25;;
21254;SDS011;10785;50.674;17.954;2022-08-03T09:22:50;8.05;;;5.25;;
21254;SDS011;10785;50.674;17.954;2022-08-03T09:25:29;7.50;;;5.78;;
21254;SDS011;10785;50.674;17.954;2022-08-03T09:28:09;10.15;;;5.90;;
21254;SDS011;10785;50.674;17.954;2022-08-03T09:31:00;7.68;;;5.70;;
21254;SDS011;10785;50.674;17.954;2022-08-03T09:33:28;6.35;;;5.00;;
21254;SDS011;10785;50.674;17.954;2022-08-03T09:36:01;9.23;;;4.97;;
21254;SDS011;10785;50.674;17.954;2022-08-03T09:38:30;7.70;;;4.78;;
21254;SDS011;10785;50.674;17.954;2022-08-03T09:41:00;5.97;;;5.38;;
21254;SDS011;10785;50.674;17.954;2022-08-03T09:43:29;9.77;;;5.10;;
21254;SDS011;10785;50.674;17.954;2022-08-03T09:46:13;5.32;;;4.82;;
21254;SDS011;10785;50.674;17.954;2022-08-03T09:48:41;5.00;;;4.50;;
21254;SDS011;10785;50.674;17.954;2022-08-03T09:51:10;5.10;;;4.60;;
21254;SDS011;10785;50.674;17.954;2022-08-03T09:54:01;7.38;;;4.35;;
21254;SDS011;10785;50.674;17.954;2022-08-03T09:56:39;7.10;;;4.38;;
21254;SDS011;10785;50.674;17.954;2022-08-03T09:59:08;4.53;;;4.13;;
21254;SDS011;10785;50.674;17.954;2022-08-03T10:01:38;8.10;;;5.15;;
21254;SDS011;10785;50.674;17.954;2022-08-03T10:04:11;6.00;;;4.28;;
21254;SDS011;10785;50.674;17.954;2022-08-03T10:06:43;8.40;;;5.45;;
21254;SDS011;10785;50.674;17.954;2022-08-03T10:09:13;6.68;;;5.15;;
21254;SDS011;10785;50.674;17.954;2022-08-03T10:11:44;7.80;;;6.03;;
21254;SDS011;10785;50.674;17.954;2022-08-03T10:14:17;5.88;;;5.15;;
21254;SDS011;10785;50.674;17.954;2022-08-03T10:16:46;7.78;;;5.40;;
21254;SDS011;10785;50.674;17.954;2022-08-03T10:19:15;6.72;;;4.43;;
21254;SDS011;10785;50.674;17.954;2022-08-03T10:21:45;7.78;;;4.65;;
21254;SDS011;10785;50.674;17.954;2022-08-03T10:24:23;9.60;;;7.30;;
21254;SDS011;10785;50.674;17.954;2022-08-03T10:26:55;6.28;;;4.90;;
21254;SDS011;10785;50.674;17.954;2022-08-03T10:29:29;5.53;;;4.28;;
21254;SDS011;10785;50.674;17.954;2022-08-03T10:32:07;7.43;;;4.70;;
21254;SDS011;10785;50.674;17.954;2022-08-03T10:34:41;6.00;;;4.85;;
21254;SDS011;10785;50.674;17.954;2022-08-03T10:37:11;6.80;;;4.47;;
21254;SDS011;10785;50.674;17.954;2022-08-03T10:39:44;5.22;;;4.70;;
21254;SDS011;10785;50.674;17.954;2022-08-03T10:42:22;4.57;;;4.15;;
21254;SDS011;10785;50.674;17.954;2022-08-03T10:44:55;4.95;;;4.53;;
21254;SDS011;10785;50.674;17.954;2022-08-03T10:47:29;6.07;;;4.60;;
21254;SDS011;10785;50.674;17.954;2022-08-03T10:49:59;4.93;;;4.50;;
21254;SDS011;10785;50.674;17.954;2022-08-03T10:52:29;9.55;;;4.78;;
21254;SDS011;10785;50.674;17.954;2022-08-03T11:04:26;7.90;;;4.40;;
21254;SDS011;10785;50.674;17.954;2022-08-03T11:09:48;5.38;;;4.20;;
21254;SDS011;10785;50.674;17.954;2022-08-03T11:12:20;5.82;;;4.15;;
21254;SDS011;10785;50.674;17.954;2022-08-03T11:14:59;5.47;;;4.22;;
21254;SDS011;10785;50.674;17.954;2022-08-03T11:17:30;8.93;;;5.03;;
21254;SDS011;10785;50.674;17.954;2022-08-03T11:20:12;6.40;;;3.92;;
21254;SDS011;10785;50.674;17.954;2022-08-03T11:22:48;6.50;;;4.43;;
21254;SDS011;10785;50.674;17.954;2022-08-03T11:25:20;3.92;;;3.63;;
21254;SDS011;10785;50.674;17.954;2022-08-03T11:28:24;4.88;;;4.13;;
21254;SDS011;10785;50.674;17.954;2022-08-03T11:30:55;6.43;;;4.25;;
21254;SDS011;10785;50.674;17.954;2022-08-03T11:33:27;4.50;;;4.03;;
21254;SDS011;10785;50.674;17.954;2022-08-03T11:35:57;6.47;;;4.50;;
21254;SDS011;10785;50.674;17.954;2022-08-03T11:38:27;5.68;;;3.72;;
21254;SDS011;10785;50.674;17.954;2022-08-03T11:40:56;4.18;;;3.63;;
21254;SDS011;10785;50.674;17.954;2022-08-03T11:43:43;4.40;;;4.00;;
21254;SDS011;10785;50.674;17.954;2022-08-03T11:46:13;4.10;;;3.70;;
21254;SDS011;10785;50.674;17.954;2022-08-03T11:49:01;8.02;;;4.80;;
21254;SDS011;10785;50.674;17.954;2022-08-03T11:51:36;4.60;;;4.20;;
21254;SDS011;10785;50.674;17.954;2022-08-03T11:54:06;11.93;;;5.65;;
21254;SDS011;10785;50.674;17.954;2022-08-03T11:56:45;5.95;;;4.25;;
21254;SDS011;10785;50.674;17.954;2022-08-03T11:59:14;7.18;;;4.10;;
21254;SDS011;10785;50.674;17.954;2022-08-03T12:01:50;7.10;;;4.38;;
21254;SDS011;10785;50.674;17.954;2022-08-03T12:04:18;7.28;;;4.07;;
21254;SDS011;10785;50.674;17.954;2022-08-03T12:06:57;5.85;;;3.85;;
21254;SDS011;10785;50.674;17.954;2022-08-03T12:09:26;5.15;;;3.90;;
21254;SDS011;10785;50.674;17.954;2022-08-03T12:11:54;4.40;;;4.00;;
21254;SDS011;10785;50.674;17.954;2022-08-03T12:14:26;5.00;;;4.10;;
21254;SDS011;10785;50.674;17.954;2022-08-03T12:17:18;4.82;;;3.63;;
21254;SDS011;10785;50.674;17.954;2022-08-03T12:19:48;4.57;;;4.13;;
21254;SDS011;10785;50.674;17.954;2022-08-03T12:22:20;6.10;;;3.92;;
21254;SDS011;10785;50.674;17.954;2022-08-03T12:24:58;4.88;;;4.18;;
21254;SDS011;10785;50.674;17.954;2022-08-03T12:27:29;5.25;;;4.50;;
21254;SDS011;10785;50.674;17.954;2022-08-03T12:29:58;6.38;;;3.95;;
21254;SDS011;10785;50.674;17.954;2022-08-03T12:32:31;7.53;;;4.30;;
21254;SDS011;10785;50.674;17.954;2022-08-03T12:34:59;3.95;;;3.60;;
21254;SDS011;10785;50.674;17.954;2022-08-03T12:37:30;4.57;;;4.05;;
21254;SDS011;10785;50.674;17.954;2022-08-03T12:40:00;4.95;;;4.35;;
21254;SDS011;10785;50.674;17.954;2022-08-03T12:42:36;4.95;;;3.88;;
21254;SDS011;10785;50.674;17.954;2022-08-03T12:45:19;6.88;;;3.72;;
21254;SDS011;10785;50.674;17.954;2022-08-03T12:47:50;9.40;;;3.55;;
21254;SDS011;10785;50.674;17.954;2022-08-03T12:50:23;9.10;;;3.72;;
21254;SDS011;10785;50.674;17.954;2022-08-03T12:52:57;4.95;;;3.97;;
21254;SDS011;10785;50.674;17.954;2022-08-03T12:55:27;6.10;;;3.92;;
21254;SDS011;10785;50.674;17.954;2022-08-03T12:58:29;4.78;;;3.53;;
21254;SDS011;10785;50.674;17.954;2022-08-03T13:01:02;4.30;;;3.90;;
21254;SDS011;10785;50.674;17.954;2022-08-03T13:03:41;6.00;;;3.60;;
21254;SDS011;10785;50.674;17.954;2022-08-03T13:06:16;6.50;;;4.28;;
21254;SDS011;10785;50.674;17.954;2022-08-03T13:08:45;4.22;;;3.83;;
21254;SDS011;10785;50.674;17.954;2022-08-03T13:11:18;4.50;;;3.65;;
21254;SDS011;10785;50.674;17.954;2022-08-03T13:14:08;6.13;;;4.05;;
21254;SDS011;10785;50.674;17.954;2022-08-03T13:16:45;4.32;;;3.85;;
21254;SDS011;10785;50.674;17.954;2022-08-03T13:19:15;3.60;;;3.30;;
21254;SDS011;10785;50.674;17.954;2022-08-03T13:21:43;4.63;;;3.47;;
21254;SDS011;10785;50.674;17.954;2022-08-03T13:24:30;5.65;;;3.97;;
21254;SDS011;10785;50.674;17.954;2022-08-03T13:26:59;4.32;;;3.38;;
21254;SDS011;10785;50.674;17.954;2022-08-03T13:29:50;4.35;;;3.95;;
21254;SDS011;10785;50.674;17.954;2022-08-03T13:32:19;5.10;;;3.92;;
21254;SDS011;10785;50.674;17.954;2022-08-03T13:34:50;6.10;;;4.38;;
21254;SDS011;10785;50.674;17.954;2022-08-03T13:37:18;5.30;;;3.95;;
21254;SDS011;10785;50.674;17.954;2022-08-03T13:39:48;9.45;;;3.90;;
21254;SDS011;10785;50.674;17.954;2022-08-03T13:42:27;5.50;;;4.07;;
21254;SDS011;10785;50.674;17.954;2022-08-03T13:44:56;8.05;;;4.10;;
21254;SDS011;10785;50.674;17.954;2022-08-03T13:47:25;4.10;;;3.65;;
21254;SDS011;10785;50.674;17.954;2022-08-03T13:49:57;4.15;;;3.70;;
21254;SDS011;10785;50.674;17.954;2022-08-03T13:52:30;7.03;;;4.05;;
21254;SDS011;10785;50.674;17.954;2022-08-03T13:55:00;6.18;;;4.22;;
21254;SDS011;10785;50.674;17.954;2022-08-03T13:57:31;4.40;;;3.80;;
21254;SDS011;10785;50.674;17.954;2022-08-03T14:00:20;3.95;;;3.53;;
21254;SDS011;10785;50.674;17.954;2022-08-03T14:02:55;4.50;;;4.10;;
21254;SDS011;10785;50.674;17.954;2022-08-03T14:05:41;4.13;;;3.65;;
21254;SDS011;10785;50.674;17.954;2022-08-03T14:08:10;4.22;;;3.83;;
21254;SDS011;10785;50.674;17.954;2022-08-03T14:10:40;5.25;;;3.50;;
21254;SDS011;10785;50.674;17.954;2022-08-03T14:13:10;4.10;;;3.50;;
21254;SDS011;10785;50.674;17.954;2022-08-03T14:15:44;5.78;;;3.30;;
21254;SDS011;10785;50.674;17.954;2022-08-03T14:18:17;4.60;;;3.35;;
21254;SDS011;10785;50.674;17.954;2022-08-03T14:21:01;5.40;;;3.40;;
21254;SDS011;10785;50.674;17.954;2022-08-03T14:23:32;6.80;;;3.38;;
21254;SDS011;10785;50.674;17.954;2022-08-03T14:26:01;4.00;;;3.60;;
21254;SDS011;10785;50.674;17.954;2022-08-03T14:28:30;4.10;;;3.70;;
21254;SDS011;10785;50.674;17.954;2022-08-03T14:30:58;3.70;;;3.25;;
21254;SDS011;10785;50.674;17.954;2022-08-03T14:33:28;4.03;;;3.17;;
21254;SDS011;10785;50.674;17.954;2022-08-03T14:35:56;4.93;;;3.40;;
21254;SDS011;10785;50.674;17.954;2022-08-03T14:38:27;4.50;;;3.40;;
21254;SDS011;10785;50.674;17.954;2022-08-03T14:40:55;4.97;;;3.38;;
21254;SDS011;10785;50.674;17.954;2022-08-03T14:43:24;4.05;;;3.33;;
21254;SDS011;10785;50.674;17.954;2022-08-03T14:45:59;9.45;;;3.20;;
21254;SDS011;10785;50.674;17.954;2022-08-03T14:48:28;5.68;;;3.97;;
21254;SDS011;10785;50.674;17.954;2022-08-03T14:51:17;4.05;;;3.65;;
21254;SDS011;10785;50.674;17.954;2022-08-03T14:53:47;5.82;;;3.92;;
21254;SDS011;10785;50.674;17.954;2022-08-03T14:56:15;7.90;;;3.30;;
21254;SDS011;10785;50.674;17.954;2022-08-03T14:58:45;6.05;;;3.38;;
21254;SDS011;10785;50.674;17.954;2022-08-03T15:01:14;3.80;;;3.35;;
21254;SDS011;10785;50.674;17.954;2022-08-03T15:04:02;3.72;;;3.42;;
21254;SDS011;10785;50.674;17.954;2022-08-03T15:06:31;7.22;;;3.40;;
21254;SDS011;10785;50.674;17.954;2022-08-03T15:09:01;4.20;;;3.42;;
21254;SDS011;10785;50.674;17.954;2022-08-03T15:11:48;4.13;;;3.65;;
21254;SDS011;10785;50.674;17.954;2022-08-03T15:14:18;4.00;;;3.28;;